sensor_id;sensor_type;location;lat;lon;timestamp;temperature;humidity
2327;DHT22;1174;51.588;7.328;2024-03-08T00:00:32;3.70;99.90
2327;DHT22;1174;51.588;7.328;2024-03-08T00:02:59;3.70;99.90
2327;DHT22;1174;51.588;7.328;2024-03-08T00:05:26;3.60;99.90
2327;DHT22;1174;51.588;7.328;2024-03-08T00:07:53;3.60;99.90
2327;DHT22;1174;51.588;7.328;2024-03-08T00:10:20;3.60;99.90
2327;DHT22;1174;51.588;7.328;2024-03-08T00:12:47;3.60;99.90
2327;DHT22;1174;51.588;7.328;2024-03-08T00:15:15;3.60;99.90
2327;DHT22;1174;51.588;7.328;2024-03-08T00:17:44;3.60;99.90
2327;DHT22;1174;51.588;7.328;2024-03-08T00:20:11;3.50;99.90
2327;DHT22;1174;51.588;7.328;2024-03-08T00:22:38;3.50;99.90
2327;DHT22;1174;51.588;7.328;2024-03-08T00:25:07;3.50;99.90
2327;DHT22;1174;51.588;7.328;2024-03-08T00:27:35;3.50;99.90
2327;DHT22;1174;51.588;7.328;2024-03-08T00:30:02;3.50;99.90
2327;DHT22;1174;51.588;7.328;2024-03-08T00:32:29;3.40;99.90
2327;DHT22;1174;51.588;7.328;2024-03-08T00:34:58;3.40;99.90
2327;DHT22;1174;51.588;7.328;2024-03-08T00:37:25;3.40;99.90
2327;DHT22;1174;51.588;7.328;2024-03-08T00:39:52;3.30;99.90
2327;DHT22;1174;51.588;7.328;2024-03-08T00:42:20;3.30;99.90
2327;DHT22;1174;51.588;7.328;2024-03-08T00:44:47;3.30;99.90
2327;DHT22;1174;51.588;7.328;2024-03-08T00:47:16;3.30;99.90
2327;DHT22;1174;51.588;7.328;2024-03-08T00:49:43;3.30;99.90
2327;DHT22;1174;51.588;7.328;2024-03-08T00:52:11;3.20;99.90
2327;DHT22;1174;51.588;7.328;2024-03-08T00:54:38;3.20;99.90
2327;DHT22;1174;51.588;7.328;2024-03-08T00:57:05;3.20;99.90
2327;DHT22;1174;51.588;7.328;2024-03-08T00:59:32;3.10;99.90
2327;DHT22;1174;51.588;7.328;2024-03-08T01:01:59;3.10;99.90
2327;DHT22;1174;51.588;7.328;2024-03-08T01:04:26;3.10;99.90
2327;DHT22;1174;51.588;7.328;2024-03-08T01:06:54;3.10;99.90
2327;DHT22;1174;51.588;7.328;2024-03-08T01:09:23;3.10;99.90
2327;DHT22;1174;51.588;7.328;2024-03-08T01:11:49;3.00;99.90
2327;DHT22;1174;51.588;7.328;2024-03-08T01:14:16;3.00;99.90
2327;DHT22;1174;51.588;7.328;2024-03-08T01:16:43;3.00;99.90
2327;DHT22;1174;51.588;7.328;2024-03-08T01:19:10;2.90;99.90
2327;DHT22;1174;51.588;7.328;2024-03-08T01:21:37;2.90;99.90
2327;DHT22;1174;51.588;7.328;2024-03-08T01:24:04;2.90;99.90
2327;DHT22;1174;51.588;7.328;2024-03-08T01:26:32;2.90;99.90
2327;DHT22;1174;51.588;7.328;2024-03-08T01:28:59;2.80;99.90
2327;DHT22;1174;51.588;7.328;2024-03-08T01:31:27;2.80;99.90
2327;DHT22;1174;51.588;7.328;2024-03-08T01:33:54;2.80;99.90
2327;DHT22;1174;51.588;7.328;2024-03-08T01:36:21;2.80;99.90
2327;DHT22;1174;51.588;7.328;2024-03-08T01:38:48;2.80;99.90
2327;DHT22;1174;51.588;7.328;2024-03-08T01:41:15;2.70;99.90
2327;DHT22;1174;51.588;7.328;2024-03-08T01:43:44;2.70;99.90
2327;DHT22;1174;51.588;7.328;2024-03-08T01:46:17;2.70;99.90
2327;DHT22;1174;51.588;7.328;2024-03-08T01:48:47;2.70;99.90
2327;DHT22;1174;51.588;7.328;2024-03-08T01:51:14;2.70;99.90
2327;DHT22;1174;51.588;7.328;2024-03-08T01:53:42;2.70;99.90
2327;DHT22;1174;51.588;7.328;2024-03-08T01:56:11;2.60;99.90
2327;DHT22;1174;51.588;7.328;2024-03-08T01:58:41;2.60;99.90
2327;DHT22;1174;51.588;7.328;2024-03-08T02:01:10;2.60;99.90
2327;DHT22;1174;51.588;7.328;2024-03-08T02:03:37;2.60;99.90
2327;DHT22;1174;51.588;7.328;2024-03-08T02:06:04;2.60;99.90
2327;DHT22;1174;51.588;7.328;2024-03-08T02:08:35;2.60;99.90
2327;DHT22;1174;51.588;7.328;2024-03-08T02:11:02;2.60;99.90
2327;DHT22;1174;51.588;7.328;2024-03-08T02:13:30;2.60;99.90
2327;DHT22;1174;51.588;7.328;2024-03-08T02:15:58;2.60;99.90
2327;DHT22;1174;51.588;7.328;2024-03-08T02:18:28;2.60;99.90
2327;DHT22;1174;51.588;7.328;2024-03-08T02:20:57;2.60;99.90
2327;DHT22;1174;51.588;7.328;2024-03-08T02:23:24;2.60;99.90
2327;DHT22;1174;51.588;7.328;2024-03-08T02:25:51;2.60;99.90
2327;DHT22;1174;51.588;7.328;2024-03-08T02:28:19;2.50;99.90
2327;DHT22;1174;51.588;7.328;2024-03-08T02:30:46;2.60;99.90
2327;DHT22;1174;51.588;7.328;2024-03-08T02:33:14;2.60;99.90
2327;DHT22;1174;51.588;7.328;2024-03-08T02:35:42;2.60;99.90
2327;DHT22;1174;51.588;7.328;2024-03-08T02:38:12;2.50;99.90
2327;DHT22;1174;51.588;7.328;2024-03-08T02:40:41;2.50;99.90
2327;DHT22;1174;51.588;7.328;2024-03-08T02:43:11;2.50;99.90
2327;DHT22;1174;51.588;7.328;2024-03-08T02:45:38;2.50;99.90
2327;DHT22;1174;51.588;7.328;2024-03-08T02:48:06;2.50;99.90
2327;DHT22;1174;51.588;7.328;2024-03-08T02:50:34;2.50;99.90
2327;DHT22;1174;51.588;7.328;2024-03-08T02:53:01;2.40;99.90
2327;DHT22;1174;51.588;7.328;2024-03-08T02:55:30;2.40;99.90
2327;DHT22;1174;51.588;7.328;2024-03-08T02:57:59;2.40;99.90
2327;DHT22;1174;51.588;7.328;2024-03-08T03:00:26;2.40;99.90
2327;DHT22;1174;51.588;7.328;2024-03-08T03:02:53;2.40;99.90
2327;DHT22;1174;51.588;7.328;2024-03-08T03:05:20;2.30;99.90
2327;DHT22;1174;51.588;7.328;2024-03-08T03:07:47;2.30;99.90
2327;DHT22;1174;51.588;7.328;2024-03-08T03:10:14;2.30;99.90
2327;DHT22;1174;51.588;7.328;2024-03-08T03:12:43;2.30;99.90
2327;DHT22;1174;51.588;7.328;2024-03-08T03:15:11;2.30;99.90
2327;DHT22;1174;51.588;7.328;2024-03-08T03:17:38;2.30;99.90
2327;DHT22;1174;51.588;7.328;2024-03-08T03:20:06;2.20;99.90
2327;DHT22;1174;51.588;7.328;2024-03-08T03:22:36;2.20;99.90
2327;DHT22;1174;51.588;7.328;2024-03-08T03:25:04;2.20;99.90
2327;DHT22;1174;51.588;7.328;2024-03-08T03:27:32;2.20;99.90
2327;DHT22;1174;51.588;7.328;2024-03-08T03:30:00;2.20;99.90
2327;DHT22;1174;51.588;7.328;2024-03-08T03:32:46;2.20;99.90
2327;DHT22;1174;51.588;7.328;2024-03-08T03:35:13;2.10;99.90
2327;DHT22;1174;51.588;7.328;2024-03-08T03:37:40;2.10;99.90
2327;DHT22;1174;51.588;7.328;2024-03-08T03:40:09;2.10;99.90
2327;DHT22;1174;51.588;7.328;2024-03-08T03:42:35;2.10;99.90
2327;DHT22;1174;51.588;7.328;2024-03-08T03:45:05;2.10;99.90
2327;DHT22;1174;51.588;7.328;2024-03-08T03:47:35;2.10;99.90
2327;DHT22;1174;51.588;7.328;2024-03-08T03:50:04;2.10;99.90
2327;DHT22;1174;51.588;7.328;2024-03-08T03:52:31;2.10;99.90
2327;DHT22;1174;51.588;7.328;2024-03-08T03:54:58;2.20;99.90
2327;DHT22;1174;51.588;7.328;2024-03-08T03:57:25;2.10;99.90
2327;DHT22;1174;51.588;7.328;2024-03-08T03:59:52;2.10;99.90
2327;DHT22;1174;51.588;7.328;2024-03-08T04:02:20;2.10;99.90
2327;DHT22;1174;51.588;7.328;2024-03-08T04:04:47;2.10;99.90
2327;DHT22;1174;51.588;7.328;2024-03-08T04:07:13;2.10;99.90
2327;DHT22;1174;51.588;7.328;2024-03-08T04:09:41;2.20;99.90
2327;DHT22;1174;51.588;7.328;2024-03-08T04:12:07;2.10;99.90
2327;DHT22;1174;51.588;7.328;2024-03-08T04:14:35;2.20;99.90
2327;DHT22;1174;51.588;7.328;2024-03-08T04:17:05;2.10;99.90
2327;DHT22;1174;51.588;7.328;2024-03-08T04:19:33;2.10;99.90
2327;DHT22;1174;51.588;7.328;2024-03-08T04:22:00;2.10;99.90
2327;DHT22;1174;51.588;7.328;2024-03-08T04:24:27;2.10;99.90
2327;DHT22;1174;51.588;7.328;2024-03-08T04:26:55;2.00;99.90
2327;DHT22;1174;51.588;7.328;2024-03-08T04:29:23;2.10;99.90
2327;DHT22;1174;51.588;7.328;2024-03-08T04:31:50;2.10;99.90
2327;DHT22;1174;51.588;7.328;2024-03-08T04:34:19;2.10;99.90
2327;DHT22;1174;51.588;7.328;2024-03-08T04:36:47;2.00;99.90
2327;DHT22;1174;51.588;7.328;2024-03-08T04:39:14;2.00;99.90
2327;DHT22;1174;51.588;7.328;2024-03-08T04:41:41;2.10;99.90
2327;DHT22;1174;51.588;7.328;2024-03-08T04:44:09;2.10;99.90
2327;DHT22;1174;51.588;7.328;2024-03-08T04:46:37;2.10;99.90
2327;DHT22;1174;51.588;7.328;2024-03-08T04:49:04;2.10;99.90
2327;DHT22;1174;51.588;7.328;2024-03-08T04:51:32;2.00;99.90
2327;DHT22;1174;51.588;7.328;2024-03-08T04:54:00;2.00;99.90
2327;DHT22;1174;51.588;7.328;2024-03-08T04:56:28;2.00;99.90
2327;DHT22;1174;51.588;7.328;2024-03-08T04:58:55;1.90;99.90
2327;DHT22;1174;51.588;7.328;2024-03-08T05:01:22;1.90;99.90
2327;DHT22;1174;51.588;7.328;2024-03-08T05:03:48;1.90;99.90
2327;DHT22;1174;51.588;7.328;2024-03-08T05:06:16;1.80;99.90
2327;DHT22;1174;51.588;7.328;2024-03-08T05:08:43;1.90;99.90
2327;DHT22;1174;51.588;7.328;2024-03-08T05:11:13;1.80;99.90
2327;DHT22;1174;51.588;7.328;2024-03-08T05:13:40;1.80;99.90
2327;DHT22;1174;51.588;7.328;2024-03-08T05:16:07;1.80;99.90
2327;DHT22;1174;51.588;7.328;2024-03-08T05:18:34;1.70;99.90
2327;DHT22;1174;51.588;7.328;2024-03-08T05:21:01;1.70;99.90
2327;DHT22;1174;51.588;7.328;2024-03-08T05:23:29;1.70;99.90
2327;DHT22;1174;51.588;7.328;2024-03-08T05:25:56;1.70;99.90
2327;DHT22;1174;51.588;7.328;2024-03-08T05:28:24;1.70;99.90
2327;DHT22;1174;51.588;7.328;2024-03-08T05:30:50;1.70;99.90
2327;DHT22;1174;51.588;7.328;2024-03-08T05:33:17;1.70;99.90
2327;DHT22;1174;51.588;7.328;2024-03-08T05:35:44;1.80;99.90
2327;DHT22;1174;51.588;7.328;2024-03-08T05:38:11;1.70;99.90
2327;DHT22;1174;51.588;7.328;2024-03-08T05:40:38;1.60;99.90
2327;DHT22;1174;51.588;7.328;2024-03-08T05:43:05;1.60;99.90
2327;DHT22;1174;51.588;7.328;2024-03-08T05:45:33;1.60;99.90
2327;DHT22;1174;51.588;7.328;2024-03-08T05:48:00;1.60;99.90
2327;DHT22;1174;51.588;7.328;2024-03-08T05:50:26;1.60;99.90
2327;DHT22;1174;51.588;7.328;2024-03-08T05:52:53;1.60;99.90
2327;DHT22;1174;51.588;7.328;2024-03-08T05:55:20;1.60;99.90
2327;DHT22;1174;51.588;7.328;2024-03-08T05:57:50;1.60;99.90
2327;DHT22;1174;51.588;7.328;2024-03-08T06:00:19;1.60;99.90
2327;DHT22;1174;51.588;7.328;2024-03-08T06:02:49;1.60;99.90
2327;DHT22;1174;51.588;7.328;2024-03-08T06:05:16;1.50;99.90
2327;DHT22;1174;51.588;7.328;2024-03-08T06:07:42;1.50;99.90
2327;DHT22;1174;51.588;7.328;2024-03-08T06:10:10;1.50;99.90
2327;DHT22;1174;51.588;7.328;2024-03-08T06:12:37;1.60;99.90
2327;DHT22;1174;51.588;7.328;2024-03-08T06:15:07;1.60;99.90
2327;DHT22;1174;51.588;7.328;2024-03-08T06:17:35;1.60;99.90
2327;DHT22;1174;51.588;7.328;2024-03-08T06:20:03;1.60;99.90
2327;DHT22;1174;51.588;7.328;2024-03-08T06:22:36;1.60;99.90
2327;DHT22;1174;51.588;7.328;2024-03-08T06:25:03;1.60;99.90
2327;DHT22;1174;51.588;7.328;2024-03-08T06:27:30;1.60;99.90
2327;DHT22;1174;51.588;7.328;2024-03-08T06:29:59;1.70;99.90
2327;DHT22;1174;51.588;7.328;2024-03-08T06:32:26;1.70;99.90
2327;DHT22;1174;51.588;7.328;2024-03-08T06:34:52;1.70;99.90
2327;DHT22;1174;51.588;7.328;2024-03-08T06:37:20;1.80;99.90
2327;DHT22;1174;51.588;7.328;2024-03-08T06:39:49;1.80;99.90
2327;DHT22;1174;51.588;7.328;2024-03-08T06:42:17;2.00;99.90
2327;DHT22;1174;51.588;7.328;2024-03-08T06:44:44;2.10;99.90
2327;DHT22;1174;51.588;7.328;2024-03-08T06:47:15;2.20;99.90
2327;DHT22;1174;51.588;7.328;2024-03-08T06:49:41;2.30;99.90
2327;DHT22;1174;51.588;7.328;2024-03-08T06:52:09;2.30;99.90
2327;DHT22;1174;51.588;7.328;2024-03-08T06:54:37;2.30;99.90
2327;DHT22;1174;51.588;7.328;2024-03-08T06:57:04;2.40;99.90
2327;DHT22;1174;51.588;7.328;2024-03-08T06:59:31;2.50;99.90
2327;DHT22;1174;51.588;7.328;2024-03-08T07:01:58;2.70;99.90
2327;DHT22;1174;51.588;7.328;2024-03-08T07:04:25;2.70;99.90
2327;DHT22;1174;51.588;7.328;2024-03-08T07:06:55;2.80;99.90
2327;DHT22;1174;51.588;7.328;2024-03-08T07:09:22;2.70;99.90
2327;DHT22;1174;51.588;7.328;2024-03-08T07:11:51;2.80;99.90
2327;DHT22;1174;51.588;7.328;2024-03-08T07:14:21;2.70;99.90
2327;DHT22;1174;51.588;7.328;2024-03-08T07:16:47;2.70;99.90
2327;DHT22;1174;51.588;7.328;2024-03-08T07:19:14;2.70;99.90
2327;DHT22;1174;51.588;7.328;2024-03-08T07:21:41;2.70;99.90
2327;DHT22;1174;51.588;7.328;2024-03-08T07:24:08;2.80;99.90
2327;DHT22;1174;51.588;7.328;2024-03-08T07:26:51;2.80;99.90
2327;DHT22;1174;51.588;7.328;2024-03-08T07:29:18;2.90;99.90
2327;DHT22;1174;51.588;7.328;2024-03-08T07:31:44;2.90;99.90
2327;DHT22;1174;51.588;7.328;2024-03-08T07:34:20;3.00;99.90
2327;DHT22;1174;51.588;7.328;2024-03-08T07:36:47;3.20;99.90
2327;DHT22;1174;51.588;7.328;2024-03-08T07:39:16;3.30;99.90
2327;DHT22;1174;51.588;7.328;2024-03-08T07:41:44;3.50;99.90
2327;DHT22;1174;51.588;7.328;2024-03-08T07:44:12;3.70;99.90
2327;DHT22;1174;51.588;7.328;2024-03-08T07:46:39;3.80;99.90
2327;DHT22;1174;51.588;7.328;2024-03-08T07:49:07;4.00;99.90
2327;DHT22;1174;51.588;7.328;2024-03-08T07:51:36;4.20;99.90
2327;DHT22;1174;51.588;7.328;2024-03-08T07:54:03;4.30;99.90
2327;DHT22;1174;51.588;7.328;2024-03-08T07:56:30;4.40;99.90
2327;DHT22;1174;51.588;7.328;2024-03-08T07:58:56;4.50;99.90
2327;DHT22;1174;51.588;7.328;2024-03-08T08:01:24;4.60;99.90
2327;DHT22;1174;51.588;7.328;2024-03-08T08:03:51;5.00;99.90
2327;DHT22;1174;51.588;7.328;2024-03-08T08:06:18;5.30;99.90
2327;DHT22;1174;51.588;7.328;2024-03-08T08:08:45;5.70;99.90
2327;DHT22;1174;51.588;7.328;2024-03-08T08:11:11;5.80;99.90
2327;DHT22;1174;51.588;7.328;2024-03-08T08:13:38;6.10;99.90
2327;DHT22;1174;51.588;7.328;2024-03-08T08:16:05;6.20;99.90
2327;DHT22;1174;51.588;7.328;2024-03-08T08:18:34;6.30;99.90
2327;DHT22;1174;51.588;7.328;2024-03-08T08:21:01;6.60;99.90
2327;DHT22;1174;51.588;7.328;2024-03-08T08:23:28;6.80;99.90
2327;DHT22;1174;51.588;7.328;2024-03-08T08:25:55;7.00;99.90
2327;DHT22;1174;51.588;7.328;2024-03-08T08:28:22;7.30;99.90
2327;DHT22;1174;51.588;7.328;2024-03-08T08:30:50;7.50;99.90
2327;DHT22;1174;51.588;7.328;2024-03-08T08:33:16;7.90;99.90
2327;DHT22;1174;51.588;7.328;2024-03-08T08:35:45;7.80;99.90
2327;DHT22;1174;51.588;7.328;2024-03-08T08:38:13;8.00;99.90
2327;DHT22;1174;51.588;7.328;2024-03-08T08:40:40;8.70;99.90
2327;DHT22;1174;51.588;7.328;2024-03-08T08:43:06;9.10;99.90
2327;DHT22;1174;51.588;7.328;2024-03-08T08:45:34;9.00;99.90
2327;DHT22;1174;51.588;7.328;2024-03-08T08:48:01;9.50;99.90
2327;DHT22;1174;51.588;7.328;2024-03-08T08:50:29;10.40;99.90
2327;DHT22;1174;51.588;7.328;2024-03-08T08:52:57;10.70;99.90
2327;DHT22;1174;51.588;7.328;2024-03-08T08:55:25;10.70;99.90
2327;DHT22;1174;51.588;7.328;2024-03-08T08:57:52;10.60;99.90
2327;DHT22;1174;51.588;7.328;2024-03-08T09:00:19;11.00;99.90
2327;DHT22;1174;51.588;7.328;2024-03-08T09:02:47;11.40;99.90
2327;DHT22;1174;51.588;7.328;2024-03-08T09:05:13;11.80;99.90
2327;DHT22;1174;51.588;7.328;2024-03-08T09:07:42;11.80;99.90
2327;DHT22;1174;51.588;7.328;2024-03-08T09:10:12;11.50;99.90
2327;DHT22;1174;51.588;7.328;2024-03-08T09:12:39;11.50;99.90
2327;DHT22;1174;51.588;7.328;2024-03-08T09:15:08;11.90;99.90
2327;DHT22;1174;51.588;7.328;2024-03-08T09:17:36;11.10;99.90
2327;DHT22;1174;51.588;7.328;2024-03-08T09:20:06;11.30;99.90
2327;DHT22;1174;51.588;7.328;2024-03-08T09:22:33;11.50;99.90
2327;DHT22;1174;51.588;7.328;2024-03-08T09:25:02;11.90;99.90
2327;DHT22;1174;51.588;7.328;2024-03-08T09:27:32;12.50;99.90
2327;DHT22;1174;51.588;7.328;2024-03-08T09:30:00;12.30;99.90
2327;DHT22;1174;51.588;7.328;2024-03-08T09:32:27;13.00;99.90
2327;DHT22;1174;51.588;7.328;2024-03-08T09:34:53;13.20;99.90
2327;DHT22;1174;51.588;7.328;2024-03-08T09:37:21;13.00;99.90
2327;DHT22;1174;51.588;7.328;2024-03-08T09:39:48;12.90;99.90
2327;DHT22;1174;51.588;7.328;2024-03-08T09:42:15;12.70;99.90
2327;DHT22;1174;51.588;7.328;2024-03-08T09:44:46;13.30;99.90
2327;DHT22;1174;51.588;7.328;2024-03-08T09:47:13;13.40;99.90
2327;DHT22;1174;51.588;7.328;2024-03-08T09:49:40;13.50;99.90
2327;DHT22;1174;51.588;7.328;2024-03-08T09:52:09;13.90;99.90
2327;DHT22;1174;51.588;7.328;2024-03-08T09:54:38;14.70;99.40
2327;DHT22;1174;51.588;7.328;2024-03-08T09:57:06;14.30;98.60
2327;DHT22;1174;51.588;7.328;2024-03-08T09:59:34;14.30;99.10
2327;DHT22;1174;51.588;7.328;2024-03-08T10:02:14;14.70;98.30
2327;DHT22;1174;51.588;7.328;2024-03-08T10:04:42;13.90;98.10
2327;DHT22;1174;51.588;7.328;2024-03-08T10:07:09;13.80;97.60
2327;DHT22;1174;51.588;7.328;2024-03-08T10:09:36;14.10;98.00
2327;DHT22;1174;51.588;7.328;2024-03-08T10:12:05;13.70;97.70
2327;DHT22;1174;51.588;7.328;2024-03-08T10:14:32;13.80;98.10
2327;DHT22;1174;51.588;7.328;2024-03-08T10:16:59;13.70;96.80
2327;DHT22;1174;51.588;7.328;2024-03-08T10:19:28;13.70;97.70
2327;DHT22;1174;51.588;7.328;2024-03-08T10:21:55;14.70;97.20
2327;DHT22;1174;51.588;7.328;2024-03-08T10:24:24;14.70;96.10
2327;DHT22;1174;51.588;7.328;2024-03-08T10:26:52;14.30;95.80
2327;DHT22;1174;51.588;7.328;2024-03-08T10:29:19;14.40;96.90
2327;DHT22;1174;51.588;7.328;2024-03-08T10:31:46;15.20;96.80
2327;DHT22;1174;51.588;7.328;2024-03-08T10:34:13;15.60;94.60
2327;DHT22;1174;51.588;7.328;2024-03-08T10:36:41;15.90;94.40
2327;DHT22;1174;51.588;7.328;2024-03-08T10:39:23;15.80;94.40
2327;DHT22;1174;51.588;7.328;2024-03-08T10:41:53;15.30;93.70
2327;DHT22;1174;51.588;7.328;2024-03-08T10:44:38;15.10;94.50
2327;DHT22;1174;51.588;7.328;2024-03-08T10:47:14;14.90;94.20
2327;DHT22;1174;51.588;7.328;2024-03-08T10:49:51;14.80;94.30
2327;DHT22;1174;51.588;7.328;2024-03-08T10:52:21;15.50;93.60
2327;DHT22;1174;51.588;7.328;2024-03-08T10:54:48;15.60;93.30
2327;DHT22;1174;51.588;7.328;2024-03-08T10:57:18;15.40;93.50
2327;DHT22;1174;51.588;7.328;2024-03-08T10:59:47;14.90;93.40
2327;DHT22;1174;51.588;7.328;2024-03-08T11:02:16;14.50;93.80
2327;DHT22;1174;51.588;7.328;2024-03-08T11:04:47;14.80;94.30
2327;DHT22;1174;51.588;7.328;2024-03-08T11:07:15;15.60;94.00
2327;DHT22;1174;51.588;7.328;2024-03-08T11:09:47;15.90;92.80
2327;DHT22;1174;51.588;7.328;2024-03-08T11:12:24;16.10;92.50
2327;DHT22;1174;51.588;7.328;2024-03-08T11:14:55;15.90;92.10
2327;DHT22;1174;51.588;7.328;2024-03-08T11:20:11;16.80;92.10
2327;DHT22;1174;51.588;7.328;2024-03-08T11:22:42;16.80;91.70
2327;DHT22;1174;51.588;7.328;2024-03-08T11:25:34;16.50;91.40
2327;DHT22;1174;51.588;7.328;2024-03-08T11:28:15;16.00;91.40
2327;DHT22;1174;51.588;7.328;2024-03-08T11:31:22;16.30;92.00
2327;DHT22;1174;51.588;7.328;2024-03-08T11:33:49;16.40;91.90
2327;DHT22;1174;51.588;7.328;2024-03-08T11:36:21;16.90;91.60
2327;DHT22;1174;51.588;7.328;2024-03-08T11:38:52;16.30;91.40
2327;DHT22;1174;51.588;7.328;2024-03-08T11:41:23;16.00;91.10
2327;DHT22;1174;51.588;7.328;2024-03-08T11:44:02;16.50;91.20
2327;DHT22;1174;51.588;7.328;2024-03-08T11:46:30;16.70;91.30
2327;DHT22;1174;51.588;7.328;2024-03-08T11:48:57;17.10;89.70
2327;DHT22;1174;51.588;7.328;2024-03-08T11:51:24;16.70;90.40
2327;DHT22;1174;51.588;7.328;2024-03-08T11:53:50;16.70;91.50
2327;DHT22;1174;51.588;7.328;2024-03-08T11:56:19;16.80;90.80
2327;DHT22;1174;51.588;7.328;2024-03-08T12:12:08;17.90;90.30
2327;DHT22;1174;51.588;7.328;2024-03-08T12:14:37;17.70;89.60
2327;DHT22;1174;51.588;7.328;2024-03-08T12:17:04;18.00;87.50
2327;DHT22;1174;51.588;7.328;2024-03-08T12:19:31;18.00;86.50
2327;DHT22;1174;51.588;7.328;2024-03-08T12:22:07;18.10;88.00
2327;DHT22;1174;51.588;7.328;2024-03-08T12:24:35;19.50;84.20
2327;DHT22;1174;51.588;7.328;2024-03-08T12:27:19;18.40;82.90
2327;DHT22;1174;51.588;7.328;2024-03-08T12:29:46;18.50;83.80
2327;DHT22;1174;51.588;7.328;2024-03-08T12:32:12;18.50;83.40
2327;DHT22;1174;51.588;7.328;2024-03-08T12:34:40;17.50;78.30
2327;DHT22;1174;51.588;7.328;2024-03-08T12:37:07;16.90;78.40
2327;DHT22;1174;51.588;7.328;2024-03-08T12:39:35;17.10;79.00
2327;DHT22;1174;51.588;7.328;2024-03-08T12:42:02;17.50;77.20
2327;DHT22;1174;51.588;7.328;2024-03-08T12:44:31;18.00;80.30
2327;DHT22;1174;51.588;7.328;2024-03-08T12:46:58;18.00;78.10
2327;DHT22;1174;51.588;7.328;2024-03-08T12:49:25;17.90;80.10
2327;DHT22;1174;51.588;7.328;2024-03-08T12:51:52;18.70;80.60
2327;DHT22;1174;51.588;7.328;2024-03-08T12:54:21;18.30;78.60
2327;DHT22;1174;51.588;7.328;2024-03-08T12:56:49;17.20;79.10
2327;DHT22;1174;51.588;7.328;2024-03-08T12:59:19;16.90;81.60
2327;DHT22;1174;51.588;7.328;2024-03-08T13:01:48;17.20;80.50
2327;DHT22;1174;51.588;7.328;2024-03-08T13:04:16;17.40;81.00
2327;DHT22;1174;51.588;7.328;2024-03-08T13:06:46;17.00;79.70
2327;DHT22;1174;51.588;7.328;2024-03-08T13:09:15;17.20;81.80
2327;DHT22;1174;51.588;7.328;2024-03-08T13:11:45;17.30;79.60
2327;DHT22;1174;51.588;7.328;2024-03-08T13:14:12;17.70;79.20
2327;DHT22;1174;51.588;7.328;2024-03-08T13:16:38;17.00;78.30
2327;DHT22;1174;51.588;7.328;2024-03-08T13:19:06;17.10;79.10
2327;DHT22;1174;51.588;7.328;2024-03-08T13:21:34;17.80;79.50
2327;DHT22;1174;51.588;7.328;2024-03-08T13:24:01;18.10;77.90
2327;DHT22;1174;51.588;7.328;2024-03-08T13:26:28;18.10;77.00
2327;DHT22;1174;51.588;7.328;2024-03-08T13:28:58;17.10;77.70
2327;DHT22;1174;51.588;7.328;2024-03-08T13:31:25;16.30;77.80
2327;DHT22;1174;51.588;7.328;2024-03-08T13:33:51;16.30;77.60
2327;DHT22;1174;51.588;7.328;2024-03-08T13:36:24;16.50;77.30
2327;DHT22;1174;51.588;7.328;2024-03-08T13:38:55;16.50;78.40
2327;DHT22;1174;51.588;7.328;2024-03-08T13:41:24;16.50;77.40
2327;DHT22;1174;51.588;7.328;2024-03-08T13:43:51;16.30;77.70
2327;DHT22;1174;51.588;7.328;2024-03-08T13:46:18;16.60;80.00
2327;DHT22;1174;51.588;7.328;2024-03-08T13:48:45;16.90;77.50
2327;DHT22;1174;51.588;7.328;2024-03-08T13:51:13;17.00;78.80
2327;DHT22;1174;51.588;7.328;2024-03-08T13:53:42;16.80;77.60
2327;DHT22;1174;51.588;7.328;2024-03-08T13:56:09;16.50;78.00
2327;DHT22;1174;51.588;7.328;2024-03-08T13:58:37;16.30;79.20
2327;DHT22;1174;51.588;7.328;2024-03-08T14:01:05;16.20;78.10
2327;DHT22;1174;51.588;7.328;2024-03-08T14:03:37;15.60;80.60
2327;DHT22;1174;51.588;7.328;2024-03-08T14:06:04;16.40;82.30
2327;DHT22;1174;51.588;7.328;2024-03-08T14:08:32;16.90;79.20
2327;DHT22;1174;51.588;7.328;2024-03-08T14:11:01;16.80;78.80
2327;DHT22;1174;51.588;7.328;2024-03-08T14:13:38;16.80;80.40
2327;DHT22;1174;51.588;7.328;2024-03-08T14:16:06;17.10;79.20
2327;DHT22;1174;51.588;7.328;2024-03-08T14:18:34;16.80;80.40
2327;DHT22;1174;51.588;7.328;2024-03-08T14:21:01;16.40;79.80
2327;DHT22;1174;51.588;7.328;2024-03-08T14:23:29;15.80;80.20
2327;DHT22;1174;51.588;7.328;2024-03-08T14:25:56;15.30;82.10
2327;DHT22;1174;51.588;7.328;2024-03-08T14:28:25;15.30;81.70
2327;DHT22;1174;51.588;7.328;2024-03-08T14:30:53;16.00;83.70
2327;DHT22;1174;51.588;7.328;2024-03-08T14:33:20;16.20;83.20
2327;DHT22;1174;51.588;7.328;2024-03-08T14:35:46;16.90;82.60
2327;DHT22;1174;51.588;7.328;2024-03-08T14:38:15;16.60;81.70
2327;DHT22;1174;51.588;7.328;2024-03-08T14:40:43;15.80;82.20
2327;DHT22;1174;51.588;7.328;2024-03-08T14:43:12;15.50;83.80
2327;DHT22;1174;51.588;7.328;2024-03-08T14:45:41;15.70;84.80
2327;DHT22;1174;51.588;7.328;2024-03-08T14:48:08;16.00;84.90
2327;DHT22;1174;51.588;7.328;2024-03-08T14:50:37;15.40;84.10
2327;DHT22;1174;51.588;7.328;2024-03-08T14:53:04;15.20;85.20
2327;DHT22;1174;51.588;7.328;2024-03-08T14:55:32;15.40;85.80
2327;DHT22;1174;51.588;7.328;2024-03-08T14:58:02;15.40;84.20
2327;DHT22;1174;51.588;7.328;2024-03-08T15:00:29;14.90;84.70
2327;DHT22;1174;51.588;7.328;2024-03-08T15:03:01;14.50;84.90
2327;DHT22;1174;51.588;7.328;2024-03-08T15:05:30;14.40;85.90
2327;DHT22;1174;51.588;7.328;2024-03-08T15:07:58;14.90;85.80
2327;DHT22;1174;51.588;7.328;2024-03-08T15:10:26;14.90;86.10
2327;DHT22;1174;51.588;7.328;2024-03-08T15:12:54;15.20;85.50
2327;DHT22;1174;51.588;7.328;2024-03-08T15:15:24;15.20;85.80
2327;DHT22;1174;51.588;7.328;2024-03-08T15:17:51;15.00;86.10
2327;DHT22;1174;51.588;7.328;2024-03-08T15:20:21;14.60;86.50
2327;DHT22;1174;51.588;7.328;2024-03-08T15:22:51;14.30;87.50
2327;DHT22;1174;51.588;7.328;2024-03-08T15:25:20;14.50;86.90
2327;DHT22;1174;51.588;7.328;2024-03-08T15:27:51;14.10;87.80
2327;DHT22;1174;51.588;7.328;2024-03-08T15:30:18;13.90;88.80
2327;DHT22;1174;51.588;7.328;2024-03-08T15:32:48;14.50;89.70
2327;DHT22;1174;51.588;7.328;2024-03-08T15:35:15;14.70;87.90
2327;DHT22;1174;51.588;7.328;2024-03-08T15:37:45;14.80;88.60
2327;DHT22;1174;51.588;7.328;2024-03-08T15:40:12;14.70;87.70
2327;DHT22;1174;51.588;7.328;2024-03-08T15:42:48;14.60;88.50
2327;DHT22;1174;51.588;7.328;2024-03-08T15:45:15;14.10;88.70
2327;DHT22;1174;51.588;7.328;2024-03-08T15:47:43;14.00;89.70
2327;DHT22;1174;51.588;7.328;2024-03-08T15:50:10;13.50;89.80
2327;DHT22;1174;51.588;7.328;2024-03-08T15:52:39;12.80;90.70
2327;DHT22;1174;51.588;7.328;2024-03-08T15:55:08;12.30;91.30
2327;DHT22;1174;51.588;7.328;2024-03-08T15:57:35;12.10;92.10
2327;DHT22;1174;51.588;7.328;2024-03-08T16:00:03;12.10;92.20
2327;DHT22;1174;51.588;7.328;2024-03-08T16:02:39;12.00;92.50
2327;DHT22;1174;51.588;7.328;2024-03-08T16:05:07;11.80;92.90
2327;DHT22;1174;51.588;7.328;2024-03-08T16:07:37;11.70;93.70
2327;DHT22;1174;51.588;7.328;2024-03-08T16:10:04;11.70;93.30
2327;DHT22;1174;51.588;7.328;2024-03-08T16:12:35;11.60;93.60
2327;DHT22;1174;51.588;7.328;2024-03-08T16:15:03;11.50;94.10
2327;DHT22;1174;51.588;7.328;2024-03-08T16:17:31;11.60;94.20
2327;DHT22;1174;51.588;7.328;2024-03-08T16:19:58;11.50;94.50
2327;DHT22;1174;51.588;7.328;2024-03-08T16:22:24;11.50;94.90
2327;DHT22;1174;51.588;7.328;2024-03-08T16:24:51;11.60;94.70
2327;DHT22;1174;51.588;7.328;2024-03-08T16:27:18;11.60;94.90
2327;DHT22;1174;51.588;7.328;2024-03-08T16:30:21;11.60;95.10
2327;DHT22;1174;51.588;7.328;2024-03-08T16:32:49;11.50;95.10